Flight Track Log - Related Links

Times and Time Zones

All times are in EDT time to prevent confusion due to time zone crossing. See the JBU9513 flight status page for this flight to view local times or setup timezone preferences in your user account.

Time Position Orientation Groundspeed Altitude Reporting Facility
EDT Latitude Longitude Course Direction KTS MPH feet Rate Location/Type
Wed 10:29:33 AM 40.6470 -73.7650 360° North 149 171 600  Level FlightAware ADS-B
Wed 10:29:43 AM 40.6420 -73.7580 133° Southeast 143 165 1,200 2,700 Climbing FlightAware ADS-B
Wed 10:30:13 AM 40.6230 -73.7450 153° Southeast 171 197 2,400 2,000 Climbing FlightAware ADS-B
Wed 10:30:28 AM 40.6120 -73.7370 151° Southeast 200 230 2,700 1,600 Climbing FlightAware ADS-B
Wed 10:30:43 AM 40.6030 -73.7230 130° Southeast 237 273 3,200 2,550 Climbing FlightAware ADS-B
Wed 10:31:08 AM 40.5920 -73.6850 111° Southeast 275 316 4,400 3,491 Climbing FlightAware ADS-B
Wed 10:31:38 AM 40.5690 -73.6440 126° Southeast 275 316 6,400 4,154 Climbing FlightAware ADS-B
Wed 10:31:47 AM 40.5574 -73.6353 150° Southeast 277 319 7,100 3,600 Climbing FlightAware ADS-B
Wed 10:32:03 AM 40.5394 -73.6221 151° Southeast 295 339 7,900 2,909 Climbing FlightAware ADS-B
Wed 10:32:20 AM 40.5184 -73.6064 150° Southeast 306 352 8,700 3,188 Climbing FlightAware ADS-B
Wed 10:32:35 AM 40.4989 -73.5917 150° Southeast 319 367 9,600 3,000 Climbing FlightAware ADS-B
Wed 10:33:06 AM 40.4582 -73.5610 150° Southeast 344 396 11,000 2,381 Climbing FlightAware ADS-B
Wed 10:33:38 AM 40.4101 -73.5252 150° Southeast 380 437 12,100 2,492 Climbing FlightAware ADS-B
Wed 10:34:11 AM 40.3588 -73.4870 150° Southeast 396 456 13,700 2,930 Climbing FlightAware ADS-B
Wed 10:34:21 AM 40.3419 -73.4763 154° Southeast 396 456 14,200 2,690 Climbing FlightAware ADS-B
Wed 10:34:40 AM 40.3071 -73.4699 172° South 391 450 15,000 2,690 Climbing FlightAware ADS-B
Wed 10:34:50 AM 40.2898 -73.4739 190° South 386 444 15,500 2,830 Climbing FlightAware ADS-B
Wed 10:35:33 AM 40.2145 -73.4999 195° South 397 457 17,500 2,746 Climbing FlightAware ADS-B
Wed 10:35:49 AM 40.1866 -73.5102 196° South 398 458 18,200 2,625 Climbing FlightAware ADS-B
Wed 10:36:05 AM 40.1577 -73.5248 201° Southwest 397 457 18,900 2,483 Climbing FlightAware ADS-B
Wed 10:36:47 AM 40.0897 -73.5656 205° Southwest 410 472 20,600 2,250 Climbing FlightAware ADS-B
Wed 10:37:25 AM 40.0210 -73.6070 205° Southwest 421 484 21,900 2,000 Climbing FlightAware ADS-B
Wed 10:37:56 AM 39.9665 -73.6446 208° Southwest 421 484 22,900 1,000 Climbing FlightAware ADS-B
Wed 10:38:31 AM 39.9069 -73.6861 208° Southwest 421 484 23,000 179 Climbing FlightAware ADS-B
Wed 10:39:03 AM 39.8523 -73.7232 208° Southwest 418 481 23,100 545 Climbing FlightAware ADS-B
Wed 10:39:37 AM 39.7938 -73.7626 207° Southwest 426 490 23,600 818 Climbing FlightAware ADS-B
Wed 10:40:09 AM 39.7382 -73.8027 209° Southwest 422 486 24,000 615 Climbing FlightAware ADS-B
Wed 10:40:16 AM 39.7273 -73.8148 220° Southwest 414 476 24,000  Level FlightAware ADS-B
Wed 10:40:47 AM 39.6888 -73.8718 229° Southwest 404 465 24,000  Level FlightAware ADS-B
Wed 10:41:19 AM 39.6507 -73.9297 229° Southwest 402 463 24,000  Level FlightAware ADS-B
Wed 10:41:52 AM 39.6112 -73.9900 230° Southwest 400 460 24,000 364 Level FlightAware ADS-B
Wed 10:42:25 AM 39.5708 -74.0503 229° Southwest 400 460 24,400 1,200 Climbing FlightAware ADS-B
Wed 10:42:57 AM 39.5321 -74.1082 229° Southwest 410 472 25,300 1,742 Climbing FlightAware ADS-B
Wed 10:43:27 AM 39.4936 -74.1651 229° Southwest 414 476 26,200 1,800 Climbing FlightAware ADS-B
Wed 10:43:57 AM 39.4536 -74.2181 226° Southwest 430 495 27,100 1,714 Climbing FlightAware ADS-B
Wed 10:44:02 AM 39.4451 -74.2264 217° Southwest 435 501 27,200 1,610 Climbing FlightAware ADS-B
Wed 10:44:38 AM 39.3910 -74.2760 215° Southwest 440 506 28,200 1,556 Climbing FlightAware ADS-B
Wed 10:45:23 AM 39.3230 -74.3380 215° Southwest 440 506 29,300 1,524 Climbing FlightAware ADS-B
Wed 10:45:41 AM 39.2786 -74.3778 215° Southwest 453 521 29,800 1,444 Climbing FlightAware ADS-B
Wed 10:46:17 AM 39.2165 -74.4342 215° Southwest 460 529 30,600 1,164 Climbing FlightAware ADS-B
Wed 10:46:48 AM 39.1624 -74.4829 215° Southwest 471 542 31,100 1,258 Climbing FlightAware ADS-B
Wed 10:47:19 AM 39.1061 -74.5334 215° Southwest 472 543 31,900 1,714 Climbing FlightAware ADS-B
Wed 10:47:51 AM 39.0496 -74.5841 215° Southwest 467 537 32,900 1,645 Climbing FlightAware ADS-B
Wed 10:48:21 AM 38.9949 -74.6333 215° Southwest 471 542 33,600 1,630 Climbing FlightAware ADS-B
Wed 10:49:23 AM 38.8856 -74.7315 215° Southwest 473 544 35,400 1,761 Climbing FlightAware ADS-B
Wed 10:49:53 AM 38.8325 -74.7789 215° Southwest 457 526 36,300 1,475 Climbing FlightAware ADS-B
Wed 10:50:24 AM 38.7800 -74.8260 215° Southwest 459 528 36,900 1,235 Climbing FlightAware ADS-B
Wed 10:51:01 AM 38.7150 -74.8839 215° Southwest 456 525 37,700 767 Climbing FlightAware ADS-B
Wed 10:51:50 AM 38.6309 -74.9585 215° Southwest 449 517 38,000 212 Climbing FlightAware ADS-B
Wed 10:52:26 AM 38.5699 -75.0127 215° Southwest 449 517 38,000  Level FlightAware ADS-B
Wed 10:52:56 AM 38.5182 -75.0587 215° Southwest 451 519 38,000  Level FlightAware ADS-B
Wed 10:53:29 AM 38.4617 -75.1086 215° Southwest 453 521 38,000  Level FlightAware ADS-B
Wed 10:54:12 AM 38.3880 -75.1735 215° Southwest 452 520 38,000  Level FlightAware ADS-B
Wed 10:54:53 AM 38.3176 -75.2355 215° Southwest 452 520 38,000  Level FlightAware ADS-B
Wed 10:55:53 AM 38.2190 -75.3220 215° Southwest 449 517 38,000  Level FlightAware ADS-B
Wed 10:56:26 AM 38.1573 -75.3759 214° Southwest 451 519 38,000  Level FlightAware ADS-B
Wed 10:56:57 AM 38.1046 -75.4220 215° Southwest 452 520 38,000  Level FlightAware ADS-B
Wed 10:57:29 AM 38.0486 -75.4697 214° Southwest 454 522 38,000  Level FlightAware ADS-B
Wed 10:58:03 AM 37.9884 -75.5149 211° Southwest 454 522 38,000  Level FlightAware ADS-B
Wed 10:58:33 AM 37.9420 -75.5500 211° Southwest 452 520 38,000  Level FlightAware ADS-B
Wed 10:59:22 AM 37.8462 -75.6230 211° Southwest 452 520 38,000  Level FlightAware ADS-B
Wed 11:00:04 AM 37.7711 -75.6798 211° Southwest 453 521 38,000  Level FlightAware ADS-B
Wed 11:00:37 AM 37.7115 -75.7246 211° Southwest 454 522 38,000  Level FlightAware ADS-B
Wed 11:01:09 AM 37.6545 -75.7674 211° Southwest 456 525 38,000  Level FlightAware ADS-B
Wed 11:01:43 AM 37.5911 -75.8150 211° Southwest 457 526 38,000  Level FlightAware ADS-B
Wed 11:01:59 AM 37.5619 -75.8367 211° Southwest 458 527 38,000  Level FlightAware ADS-B
Wed 11:03:08 AM 37.4430 -75.9240 210° Southwest 449 517 38,000  Level FlightAware ADS-B
Wed 11:03:53 AM 37.3660 -75.9870 213° Southwest 447 514 38,000  Level FlightAware ADS-B
Wed 11:04:06 AM 37.3345 -76.0133 214° Southwest 454 522 38,000  Level FlightAware ADS-B
Wed 11:04:36 AM 37.2811 -76.0564 213° Southwest 453 521 38,000  Level FlightAware ADS-B
Wed 11:05:07 AM 37.2271 -76.1002 213° Southwest 452 520 38,000  Level FlightAware ADS-B
Wed 11:05:38 AM 37.1736 -76.1436 213° Southwest 452 520 38,000  Level FlightAware ADS-B
Wed 11:06:08 AM 37.1202 -76.1868 213° Southwest 451 519 38,000  Level FlightAware ADS-B
Wed 11:06:45 AM 37.0555 -76.2390 213° Southwest 450 518 38,000  Level FlightAware ADS-B
Wed 11:07:17 AM 36.9994 -76.2842 213° Southwest 451 519 38,000  Level FlightAware ADS-B
Wed 11:07:49 AM 36.9440 -76.3288 213° Southwest 452 520 38,000 -209 Level FlightAware ADS-B
Wed 11:08:43 AM 36.8540 -76.4010 213° Southwest 448 516 37,700 -574 Descending FlightAware ADS-B
Wed 11:09:23 AM 36.7850 -76.4560 213° Southwest 450 518 37,100 -918 Descending FlightAware ADS-B
Wed 11:10:08 AM 36.7040 -76.5200 212° Southwest 452 520 36,400 -733 Descending FlightAware ADS-B
Wed 11:10:53 AM 36.6230 -76.5840 212° Southwest 451 519 36,000 -282 Descending FlightAware ADS-B
Wed 11:11:33 AM 36.5540 -76.6390 213° Southwest 448 516 36,000  Level FlightAware ADS-B
Wed 11:12:08 AM 36.5000 -76.6810 212° Southwest 448 516 36,000  Level FlightAware ADS-B
Wed 11:12:48 AM 36.4400 -76.7270 212° Southwest 448 516 36,000  Level FlightAware ADS-B
Wed 11:13:48 AM 36.3220 -76.8220 213° Southwest 446 513 36,000  Level FlightAware ADS-B
Wed 11:14:33 AM 36.2510 -76.8790 213° Southwest 446 513 36,000  Level FlightAware ADS-B
Wed 11:15:13 AM 36.1920 -76.9260 213° Southwest 446 513 36,000  Level FlightAware ADS-B
Wed 11:15:53 AM 36.1330 -76.9740 213° Southwest 446 513 36,000  Level FlightAware ADS-B
Wed 11:16:33 AM 36.0310 -77.0490 211° Southwest 36,000  Level FlightAware ADS-B
Wed 11:17:23 AM 35.9480 -77.1140 212° Southwest 442 509 36,000  Level FlightAware ADS-B
Wed 11:17:58 AM 35.8750 -77.1700 212° Southwest 444 511 36,000  Level FlightAware ADS-B
Wed 11:18:43 AM 35.8020 -77.2270 212° Southwest 443 510 36,000 -300 Level FlightAware ADS-B
Wed 11:19:18 AM 35.7450 -77.2710 212° Southwest 438 504 35,600 -867 Descending FlightAware ADS-B
Wed 11:20:13 AM 35.6480 -77.3460 212° Southwest 436 502 34,700 -947 Descending FlightAware ADS-B
Wed 11:20:53 AM 35.5790 -77.3990 212° Southwest 438 504 34,100 -525 Descending FlightAware ADS-B
Wed 11:21:33 AM 35.5130 -77.4500 212° Southwest 440 506 34,000 -80 Descending FlightAware ADS-B
Wed 11:22:08 AM 35.4520 -77.4960 212° Southwest 436 502 34,000  Level FlightAware ADS-B
Wed 11:22:53 AM 35.3820 -77.5500 212° Southwest 436 502 34,000  Level FlightAware ADS-B
Wed 11:23:33 AM 35.3240 -77.5940 212° Southwest 436 502 34,000  Level FlightAware ADS-B
Wed 11:24:23 AM 35.2510 -77.6500 212° Southwest 436 502 34,000  Level FlightAware ADS-B
Wed 11:25:03 AM 35.1930 -77.6940 212° Southwest 436 502 34,000  Level FlightAware ADS-B
Wed 11:25:43 AM 35.1350 -77.7390 212° Southwest 436 502 34,000  Level FlightAware ADS-B
Wed 11:26:23 AM 35.0770 -77.7830 212° Southwest 436 502 34,000  Level FlightAware ADS-B
Wed 11:27:03 AM 35.0190 -77.8280 212° Southwest 436 502 34,000  Level FlightAware ADS-B
Wed 11:27:53 AM 34.9460 -77.8830 212° Southwest 436 502 34,000  Level FlightAware ADS-B
Wed 11:28:33 AM 34.8880 -77.9270 212° Southwest 436 502 34,000  Level FlightAware ADS-B
Wed 11:29:13 AM 34.8300 -77.9720 212° Southwest 436 502 34,000  Level FlightAware ADS-B
Wed 11:29:53 AM 34.7710 -78.0160 211° Southwest 436 502 34,000 -900 Level FlightAware ADS-B
Wed 11:30:23 AM 34.6850 -78.2640 247° West 30,100 -1,000 Descending FlightAware ADS-B
Wed 11:35:53 AM 34.2120 -78.7550 221° Southwest 406 467 28,000 -332 Descending FlightAware ADS-B
Wed 11:36:43 AM 34.1390 -78.8380 223° Southwest 399 459 28,000 -316 Level FlightAware ADS-B
Wed 11:37:28 AM 34.0810 -78.9050 224° Southwest 389 448 27,500 -776 Descending FlightAware ADS-B
Wed 11:38:08 AM 34.0270 -78.9660 223° Southwest 388 447 26,900 -1,129 Descending FlightAware ADS-B
Wed 11:38:53 AM 33.9700 -79.0320 224° Southwest 384 442 25,900 -1,650 Descending FlightAware ADS-B
Wed 11:39:28 AM 33.9240 -79.0830 223° Southwest 379 436 24,700 -2,025 Descending FlightAware ADS-B
Wed 11:40:13 AM 33.8680 -79.1470 224° Southwest 374 430 23,200 -2,047 Descending FlightAware ADS-B
Wed 11:40:53 AM 33.8170 -79.2040 223° Southwest 370 426 21,800 -1,976 Descending FlightAware ADS-B
Wed 11:41:38 AM 33.7590 -79.2590 218° Southwest 366 421 20,400 -1,933 Descending FlightAware ADS-B
Wed 11:42:23 AM 33.6940 -79.3080 212° Southwest 360 414 18,900 -2,118 Descending FlightAware ADS-B
Wed 11:43:03 AM 33.6370 -79.3510 212° Southwest 360 414 17,400 -2,175 Descending FlightAware ADS-B
Wed 11:43:43 AM 33.5800 -79.3940 212° Southwest 357 411 16,000 -2,025 Descending FlightAware ADS-B
Wed 11:44:23 AM 33.5250 -79.4360 212° Southwest 352 405 14,700 -1,875 Descending FlightAware ADS-B
Wed 11:45:03 AM 33.4710 -79.4760 212° Southwest 346 398 13,500 -1,906 Descending FlightAware ADS-B
Wed 11:45:48 AM 33.4100 -79.5220 212° Southwest 338 389 12,000 -1,733 Descending FlightAware ADS-B
Wed 11:46:33 AM 33.3540 -79.5630 211° Southwest 323 372 10,900 -847 Descending FlightAware ADS-B
Wed 11:47:13 AM 33.3010 -79.6040 213° Southwest 321 369 10,800 -150 Descending FlightAware ADS-B
Wed 11:47:53 AM 33.2500 -79.6430 213° Southwest 317 365 10,700 -218 Descending FlightAware ADS-B
Wed 11:48:08 AM 33.2390 -79.6560 225° Southwest 309 356 10,600 -1,350 Descending FlightAware ADS-B
Wed 11:48:33 AM 33.2170 -79.6960 237° Southwest 288 331 9,800 -1,636 Descending FlightAware ADS-B
Wed 11:49:03 AM 33.1970 -79.7330 237° Southwest 264 304 9,100 -2,200 Descending FlightAware ADS-B
Wed 11:49:33 AM 33.1780 -79.7720 240° Southwest 277 319 7,600 -2,800 Descending FlightAware ADS-B
Wed 11:49:48 AM 33.1680 -79.7920 239° Southwest 273 314 7,000 -2,250 Descending FlightAware ADS-B
Wed 11:50:13 AM 33.1530 -79.8260 242° Southwest 267 307 6,100 -2,073 Descending FlightAware ADS-B
Wed 11:50:43 AM 33.1370 -79.8600 241° Southwest 260 299 5,100 -1,091 Descending FlightAware ADS-B
Wed 11:51:08 AM 33.1230 -79.8890 240° Southwest 260 299 5,100 -1,370 Level FlightAware ADS-B
Wed 11:52:15 AM 33.0867 -79.9647 240° Southwest 269 310 3,000 -1,228 Descending Jacksonville Center
Wed 11:53:15 AM 33.0306 -79.9714 186° South 202 232 2,500 -600 Descending Jacksonville Center
Wed 11:54:15 AM 32.9850 -79.9928 201° Southwest 196 226 1,800 -750 Descending Jacksonville Center
Wed 11:55:15 AM 32.9519 -80.0111 205° Southwest 172 198 1,000 -800 Descending Jacksonville Center
Wed 11:57:00 AM 32.8986 -80.0405 203° Southwest  Level Estimated
Wed 12:04:00 PM 32.8986 -80.0405 203° Southwest  Level Estimated
Wed 12:05:00 PM 32.8986 -80.0405 203° Southwest  Level Estimated

Login

Don't have an account? Register now (free) for customized features, flight alerts, and more!